createdAt,value
2023-02-06T00:27:17.331Z,100669.09
2023-02-06T00:48:00.438Z,100668.63
2023-02-06T00:54:24.405Z,100648.56
2023-02-06T05:58:55.825Z,100578.50
2023-02-06T06:04:00.252Z,100561.00
2023-02-06T06:44:46.857Z,100577.56
2023-02-06T09:18:47.190Z,100597.25
2023-02-06T09:24:54.843Z,100593.13
2023-02-06T09:36:18.833Z,100593.69
2023-02-06T11:09:18.233Z,100561.75
2023-02-06T12:41:08.654Z,100527.41
2023-02-06T14:48:37.964Z,100575.84
2023-02-06T15:00:29.831Z,100581.75
2023-02-06T15:05:38.997Z,100582.28
2023-02-06T15:16:49.918Z,100586.56
2023-02-06T15:22:00.742Z,100588.28
2023-02-06T18:26:04.171Z,100709.38
2023-02-06T18:31:34.986Z,100712.28
2023-02-06T18:36:39.399Z,100719.41
2023-02-06T18:48:24.724Z,100720.19
2023-02-06T18:54:47.782Z,100718.41
2023-02-06T18:59:53.108Z,100723.66
2023-02-06T19:05:45.577Z,100716.56
2023-02-06T19:10:49.366Z,100700.78
2023-02-06T19:16:19.630Z,100706.75
2023-02-06T19:21:51.951Z,100704.44
2023-02-06T19:27:23.377Z,100698.06
2023-02-06T19:32:29.275Z,100697.69
2023-02-06T19:37:35.472Z,100714.47
2023-02-06T19:43:07.116Z,100711.00
2023-02-06T19:48:14.927Z,100717.84
2023-02-06T19:53:18.362Z,100724.94
2023-02-06T19:58:22.721Z,100726.69
2023-02-06T20:03:30.100Z,100733.22
2023-02-06T20:08:34.349Z,100723.31
2023-02-06T20:13:43.102Z,100720.41
2023-02-06T20:18:48.957Z,100716.59
2023-02-06T20:23:52.977Z,100718.06
2023-02-06T20:28:57.139Z,100731.25
2023-02-06T20:34:06.485Z,100741.38
2023-02-06T20:39:12.746Z,100740.97
2023-02-06T20:44:17.185Z,100743.31
2023-02-06T20:49:25.200Z,100763.00
2023-02-06T20:54:30.946Z,100770.16
2023-02-06T20:59:34.787Z,100791.44
2023-02-06T21:04:39.930Z,100791.00
2023-02-06T21:09:44.442Z,100806.81
2023-02-06T21:14:48.295Z,100810.53
2023-02-06T21:19:53.666Z,100800.41
2023-02-06T21:24:57.308Z,100797.31
2023-02-06T21:30:01.023Z,100805.03
2023-02-06T21:35:06.903Z,100817.78
2023-02-06T21:40:11.987Z,100820.69
2023-02-06T21:45:15.603Z,100824.59
2023-02-06T21:50:20.968Z,100824.31
2023-02-06T21:55:25.430Z,100842.13
2023-02-06T22:00:57.364Z,100844.13
2023-02-06T22:06:08.863Z,100840.81
2023-02-06T22:11:21.639Z,100864.53
2023-02-06T22:16:26.683Z,100873.91
2023-02-06T22:21:33.727Z,100872.19
2023-02-06T22:26:57.645Z,100879.41
2023-02-06T22:32:29.016Z,100894.50
2023-02-06T22:38:03.851Z,100893.44
2023-02-06T22:43:08.811Z,100890.97
2023-02-06T22:48:37.614Z,100901.66
2023-02-06T22:53:45.141Z,100878.34
2023-02-06T22:58:53.596Z,100860.81
2023-02-06T23:03:58.967Z,100864.13
2023-02-06T23:09:09.382Z,100882.53
2023-02-06T23:14:17.702Z,100873.59
2023-02-06T23:19:23.803Z,100856.72
2023-02-06T23:24:29.737Z,100857.66
2023-02-06T23:29:35.608Z,100841.47
2023-02-06T23:34:40.068Z,100841.88
2023-02-06T23:39:45.995Z,100835.97
2023-02-06T23:44:50.490Z,100842.78
2023-02-06T23:49:54.164Z,100823.09
2023-02-06T23:55:00.247Z,100815.22
